sensor_id;sensor_type;location;lat;lon;timestamp;P1;durP1;ratioP1;P2;durP2;ratioP2
27939;SDS011;15275;51.716;14.324;2023-03-25T00:02:21;2.88;;;1.70;;
27939;SDS011;15275;51.716;14.324;2023-03-25T00:04:50;1.88;;;1.55;;
27939;SDS011;15275;51.716;14.324;2023-03-25T00:07:18;3.20;;;1.50;;
27939;SDS011;15275;51.716;14.324;2023-03-25T00:09:46;3.00;;;1.45;;
27939;SDS011;15275;51.716;14.324;2023-03-25T00:12:12;4.38;;;1.38;;
27939;SDS011;15275;51.716;14.324;2023-03-25T00:14:40;2.22;;;1.42;;
27939;SDS011;15275;51.716;14.324;2023-03-25T00:17:07;5.97;;;1.40;;
27939;SDS011;15275;51.716;14.324;2023-03-25T00:19:34;1.58;;;1.20;;
27939;SDS011;15275;51.716;14.324;2023-03-25T00:22:00;4.20;;;1.50;;
27939;SDS011;15275;51.716;14.324;2023-03-25T00:24:26;1.80;;;1.35;;
27939;SDS011;15275;51.716;14.324;2023-03-25T00:26:52;2.50;;;1.60;;
27939;SDS011;15275;51.716;14.324;2023-03-25T00:29:18;2.38;;;1.67;;
27939;SDS011;15275;51.716;14.324;2023-03-25T00:31:45;2.55;;;1.52;;
27939;SDS011;15275;51.716;14.324;2023-03-25T00:34:11;4.95;;;1.52;;
27939;SDS011;15275;51.716;14.324;2023-03-25T00:36:40;3.92;;;1.48;;
27939;SDS011;15275;51.716;14.324;2023-03-25T00:39:07;2.20;;;1.42;;
27939;SDS011;15275;51.716;14.324;2023-03-25T00:41:34;3.17;;;1.38;;
27939;SDS011;15275;51.716;14.324;2023-03-25T00:44:02;2.85;;;1.63;;
27939;SDS011;15275;51.716;14.324;2023-03-25T00:46:32;2.13;;;1.52;;
27939;SDS011;15275;51.716;14.324;2023-03-25T00:48:58;4.78;;;1.83;;
27939;SDS011;15275;51.716;14.324;2023-03-25T00:51:25;2.85;;;1.50;;
27939;SDS011;15275;51.716;14.324;2023-03-25T00:53:52;4.03;;;1.60;;
27939;SDS011;15275;51.716;14.324;2023-03-25T00:56:20;3.35;;;1.70;;
27939;SDS011;15275;51.716;14.324;2023-03-25T00:58:48;4.15;;;2.00;;
27939;SDS011;15275;51.716;14.324;2023-03-25T01:01:18;3.67;;;1.73;;
27939;SDS011;15275;51.716;14.324;2023-03-25T01:03:47;2.22;;;1.63;;
27939;SDS011;15275;51.716;14.324;2023-03-25T01:06:21;5.90;;;2.35;;
27939;SDS011;15275;51.716;14.324;2023-03-25T01:08:53;2.78;;;2.00;;
27939;SDS011;15275;51.716;14.324;2023-03-25T01:11:23;4.10;;;1.80;;
27939;SDS011;15275;51.716;14.324;2023-03-25T01:13:59;3.33;;;1.60;;
27939;SDS011;15275;51.716;14.324;2023-03-25T01:16:26;6.95;;;2.20;;
27939;SDS011;15275;51.716;14.324;2023-03-25T01:18:53;2.80;;;1.77;;
27939;SDS011;15275;51.716;14.324;2023-03-25T01:21:20;4.00;;;1.73;;
27939;SDS011;15275;51.716;14.324;2023-03-25T01:23:46;1.88;;;1.65;;
27939;SDS011;15275;51.716;14.324;2023-03-25T01:26:12;5.03;;;1.75;;
27939;SDS011;15275;51.716;14.324;2023-03-25T01:28:39;3.90;;;1.88;;
27939;SDS011;15275;51.716;14.324;2023-03-25T01:31:06;2.33;;;1.63;;
27939;SDS011;15275;51.716;14.324;2023-03-25T01:33:34;3.25;;;1.75;;
27939;SDS011;15275;51.716;14.324;2023-03-25T01:36:00;4.95;;;1.98;;
27939;SDS011;15275;51.716;14.324;2023-03-25T01:38:27;4.20;;;2.10;;
27939;SDS011;15275;51.716;14.324;2023-03-25T01:40:54;4.90;;;1.95;;
27939;SDS011;15275;51.716;14.324;2023-03-25T01:43:21;2.95;;;1.55;;
27939;SDS011;15275;51.716;14.324;2023-03-25T01:45:48;3.08;;;2.03;;
27939;SDS011;15275;51.716;14.324;2023-03-25T01:48:21;4.18;;;2.00;;
27939;SDS011;15275;51.716;14.324;2023-03-25T01:51:06;5.57;;;2.28;;
27939;SDS011;15275;51.716;14.324;2023-03-25T01:53:40;3.40;;;2.10;;
27939;SDS011;15275;51.716;14.324;2023-03-25T01:56:07;4.75;;;2.03;;
27939;SDS011;15275;51.716;14.324;2023-03-25T01:58:37;3.42;;;2.20;;
27939;SDS011;15275;51.716;14.324;2023-03-25T02:01:05;4.95;;;2.00;;
27939;SDS011;15275;51.716;14.324;2023-03-25T02:03:37;2.80;;;2.20;;
27939;SDS011;15275;51.716;14.324;2023-03-25T02:06:21;3.72;;;2.42;;
27939;SDS011;15275;51.716;14.324;2023-03-25T02:08:53;4.40;;;2.42;;
27939;SDS011;15275;51.716;14.324;2023-03-25T02:11:21;4.57;;;2.40;;
27939;SDS011;15275;51.716;14.324;2023-03-25T02:13:49;4.28;;;2.28;;
27939;SDS011;15275;51.716;14.324;2023-03-25T02:16:21;3.33;;;2.47;;
27939;SDS011;15275;51.716;14.324;2023-03-25T02:32:14;4.95;;;2.65;;
27939;SDS011;15275;51.716;14.324;2023-03-25T02:40:32;5.00;;;2.67;;
27939;SDS011;15275;51.716;14.324;2023-03-25T02:43:11;6.32;;;2.45;;
27939;SDS011;15275;51.716;14.324;2023-03-25T02:45:49;4.18;;;2.20;;
27939;SDS011;15275;51.716;14.324;2023-03-25T02:48:21;5.57;;;2.40;;
27939;SDS011;15275;51.716;14.324;2023-03-25T02:51:29;6.68;;;2.90;;
27939;SDS011;15275;51.716;14.324;2023-03-25T02:54:21;3.85;;;2.60;;
27939;SDS011;15275;51.716;14.324;2023-03-25T02:56:50;8.07;;;2.20;;
27939;SDS011;15275;51.716;14.324;2023-03-25T02:59:21;4.65;;;2.50;;
27939;SDS011;15275;51.716;14.324;2023-03-25T03:01:50;6.13;;;2.40;;
27939;SDS011;15275;51.716;14.324;2023-03-25T03:04:23;6.75;;;2.47;;
27939;SDS011;15275;51.716;14.324;2023-03-25T03:06:50;7.93;;;2.70;;
27939;SDS011;15275;51.716;14.324;2023-03-25T03:12:07;4.47;;;2.50;;
27939;SDS011;15275;51.716;14.324;2023-03-25T03:14:59;5.47;;;2.95;;
27939;SDS011;15275;51.716;14.324;2023-03-25T03:17:43;5.88;;;2.85;;
27939;SDS011;15275;51.716;14.324;2023-03-25T03:23:53;3.30;;;2.40;;
27939;SDS011;15275;51.716;14.324;2023-03-25T03:26:38;4.43;;;2.22;;
27939;SDS011;15275;51.716;14.324;2023-03-25T03:32:03;8.02;;;3.22;;
27939;SDS011;15275;51.716;14.324;2023-03-25T03:35:01;4.05;;;2.55;;
27939;SDS011;15275;51.716;14.324;2023-03-25T03:37:42;3.33;;;1.90;;
27939;SDS011;15275;51.716;14.324;2023-03-25T03:40:16;5.90;;;2.35;;
27939;SDS011;15275;51.716;14.324;2023-03-25T03:42:57;6.32;;;2.55;;
27939;SDS011;15275;51.716;14.324;2023-03-25T03:48:18;5.30;;;3.42;;
27939;SDS011;15275;51.716;14.324;2023-03-25T03:50:55;5.15;;;2.63;;
27939;SDS011;15275;51.716;14.324;2023-03-25T03:53:38;6.88;;;2.40;;
27939;SDS011;15275;51.716;14.324;2023-03-25T03:56:46;4.45;;;2.00;;
27939;SDS011;15275;51.716;14.324;2023-03-25T03:59:51;3.97;;;2.40;;
27939;SDS011;15275;51.716;14.324;2023-03-25T04:02:29;5.00;;;2.50;;
27939;SDS011;15275;51.716;14.324;2023-03-25T04:05:04;5.32;;;2.30;;
27939;SDS011;15275;51.716;14.324;2023-03-25T04:07:33;4.63;;;2.00;;
27939;SDS011;15275;51.716;14.324;2023-03-25T04:10:22;5.38;;;2.33;;
27939;SDS011;15275;51.716;14.324;2023-03-25T04:13:16;3.70;;;1.70;;
27939;SDS011;15275;51.716;14.324;2023-03-25T04:15:45;6.03;;;2.45;;
27939;SDS011;15275;51.716;14.324;2023-03-25T04:18:11;5.63;;;2.20;;
27939;SDS011;15275;51.716;14.324;2023-03-25T04:20:37;5.85;;;2.55;;
27939;SDS011;15275;51.716;14.324;2023-03-25T04:23:08;3.03;;;2.20;;
27939;SDS011;15275;51.716;14.324;2023-03-25T04:25:40;4.68;;;2.65;;
27939;SDS011;15275;51.716;14.324;2023-03-25T04:28:14;3.85;;;2.17;;
27939;SDS011;15275;51.716;14.324;2023-03-25T04:30:42;4.55;;;2.28;;
27939;SDS011;15275;51.716;14.324;2023-03-25T04:33:12;5.45;;;2.53;;
27939;SDS011;15275;51.716;14.324;2023-03-25T04:35:38;4.88;;;2.17;;
27939;SDS011;15275;51.716;14.324;2023-03-25T04:38:05;3.63;;;2.10;;
27939;SDS011;15275;51.716;14.324;2023-03-25T04:40:31;5.60;;;2.17;;
27939;SDS011;15275;51.716;14.324;2023-03-25T04:42:58;3.35;;;2.10;;
27939;SDS011;15275;51.716;14.324;2023-03-25T04:45:24;3.67;;;2.20;;
27939;SDS011;15275;51.716;14.324;2023-03-25T04:47:52;3.13;;;2.55;;
27939;SDS011;15275;51.716;14.324;2023-03-25T04:52:48;4.13;;;2.30;;
27939;SDS011;15275;51.716;14.324;2023-03-25T04:55:15;6.40;;;2.50;;
27939;SDS011;15275;51.716;14.324;2023-03-25T04:57:47;3.80;;;2.50;;
27939;SDS011;15275;51.716;14.324;2023-03-25T05:00:16;4.68;;;2.25;;
27939;SDS011;15275;51.716;14.324;2023-03-25T05:02:47;6.15;;;2.13;;
27939;SDS011;15275;51.716;14.324;2023-03-25T05:05:16;6.57;;;2.38;;
27939;SDS011;15275;51.716;14.324;2023-03-25T05:07:48;3.70;;;1.90;;
27939;SDS011;15275;51.716;14.324;2023-03-25T05:10:18;4.05;;;2.10;;
27939;SDS011;15275;51.716;14.324;2023-03-25T05:12:47;4.30;;;2.58;;
27939;SDS011;15275;51.716;14.324;2023-03-25T05:15:13;3.35;;;1.95;;
27939;SDS011;15275;51.716;14.324;2023-03-25T05:17:41;6.68;;;2.30;;
27939;SDS011;15275;51.716;14.324;2023-03-25T05:20:08;4.38;;;1.92;;
27939;SDS011;15275;51.716;14.324;2023-03-25T05:22:36;6.45;;;2.17;;
27939;SDS011;15275;51.716;14.324;2023-03-25T05:25:06;5.30;;;2.30;;
27939;SDS011;15275;51.716;14.324;2023-03-25T05:27:34;4.50;;;2.03;;
27939;SDS011;15275;51.716;14.324;2023-03-25T05:30:01;4.20;;;2.03;;
27939;SDS011;15275;51.716;14.324;2023-03-25T05:32:28;4.18;;;2.13;;
27939;SDS011;15275;51.716;14.324;2023-03-25T05:34:57;5.05;;;2.03;;
27939;SDS011;15275;51.716;14.324;2023-03-25T05:37:24;1.85;;;1.35;;
27939;SDS011;15275;51.716;14.324;2023-03-25T05:39:50;4.13;;;1.55;;
27939;SDS011;15275;51.716;14.324;2023-03-25T05:42:17;3.78;;;1.45;;
27939;SDS011;15275;51.716;14.324;2023-03-25T05:44:47;5.85;;;1.70;;
27939;SDS011;15275;51.716;14.324;2023-03-25T05:47:20;2.95;;;1.80;;
27939;SDS011;15275;51.716;14.324;2023-03-25T05:49:48;2.75;;;1.70;;
27939;SDS011;15275;51.716;14.324;2023-03-25T05:52:16;3.97;;;1.63;;
27939;SDS011;15275;51.716;14.324;2023-03-25T05:54:44;4.57;;;1.75;;
27939;SDS011;15275;51.716;14.324;2023-03-25T05:57:11;3.13;;;1.90;;
27939;SDS011;15275;51.716;14.324;2023-03-25T05:59:37;3.33;;;1.33;;
27939;SDS011;15275;51.716;14.324;2023-03-25T06:02:11;4.68;;;2.38;;
27939;SDS011;15275;51.716;14.324;2023-03-25T06:04:39;5.72;;;1.63;;
27939;SDS011;15275;51.716;14.324;2023-03-25T06:07:10;3.35;;;1.35;;
27939;SDS011;15275;51.716;14.324;2023-03-25T06:09:44;2.80;;;1.38;;
27939;SDS011;15275;51.716;14.324;2023-03-25T06:12:20;2.58;;;1.52;;
27939;SDS011;15275;51.716;14.324;2023-03-25T06:14:47;3.25;;;1.30;;
27939;SDS011;15275;51.716;14.324;2023-03-25T06:17:18;6.30;;;1.27;;
27939;SDS011;15275;51.716;14.324;2023-03-25T06:19:48;2.28;;;1.30;;
27939;SDS011;15275;51.716;14.324;2023-03-25T06:22:18;2.53;;;1.02;;
27939;SDS011;15275;51.716;14.324;2023-03-25T06:24:46;4.40;;;1.48;;
27939;SDS011;15275;51.716;14.324;2023-03-25T06:27:17;3.60;;;1.15;;
27939;SDS011;15275;51.716;14.324;2023-03-25T06:29:44;3.22;;;1.27;;
27939;SDS011;15275;51.716;14.324;2023-03-25T06:32:11;2.65;;;1.23;;
27939;SDS011;15275;51.716;14.324;2023-03-25T06:34:38;4.03;;;1.20;;
27939;SDS011;15275;51.716;14.324;2023-03-25T06:37:06;1.85;;;1.13;;
27939;SDS011;15275;51.716;14.324;2023-03-25T06:39:34;2.22;;;1.10;;
27939;SDS011;15275;51.716;14.324;2023-03-25T06:42:02;0.90;;;0.80;;
27939;SDS011;15275;51.716;14.324;2023-03-25T06:44:29;3.15;;;1.13;;
27939;SDS011;15275;51.716;14.324;2023-03-25T06:46:55;1.83;;;1.00;;
27939;SDS011;15275;51.716;14.324;2023-03-25T06:49:21;2.63;;;0.90;;
27939;SDS011;15275;51.716;14.324;2023-03-25T06:51:47;3.83;;;1.00;;
27939;SDS011;15275;51.716;14.324;2023-03-25T06:54:13;2.03;;;1.00;;
27939;SDS011;15275;51.716;14.324;2023-03-25T06:56:39;2.40;;;0.90;;
27939;SDS011;15275;51.716;14.324;2023-03-25T06:59:05;2.67;;;0.82;;
27939;SDS011;15275;51.716;14.324;2023-03-25T07:01:31;2.33;;;0.80;;
27939;SDS011;15275;51.716;14.324;2023-03-25T07:03:57;2.35;;;0.88;;
27939;SDS011;15275;51.716;14.324;2023-03-25T07:06:23;4.50;;;1.38;;
27939;SDS011;15275;51.716;14.324;2023-03-25T07:08:49;0.88;;;0.63;;
27939;SDS011;15275;51.716;14.324;2023-03-25T07:11:16;1.60;;;0.80;;
27939;SDS011;15275;51.716;14.324;2023-03-25T07:13:49;3.47;;;1.60;;
27939;SDS011;15275;51.716;14.324;2023-03-25T07:16:17;1.02;;;0.60;;
27939;SDS011;15275;51.716;14.324;2023-03-25T07:18:47;2.65;;;0.80;;
27939;SDS011;15275;51.716;14.324;2023-03-25T07:21:15;1.65;;;0.75;;
27939;SDS011;15275;51.716;14.324;2023-03-25T07:23:41;0.98;;;0.65;;
27939;SDS011;15275;51.716;14.324;2023-03-25T07:26:07;1.70;;;0.70;;
27939;SDS011;15275;51.716;14.324;2023-03-25T07:28:33;2.25;;;0.82;;
27939;SDS011;15275;51.716;14.324;2023-03-25T07:30:59;3.20;;;0.80;;
27939;SDS011;15275;51.716;14.324;2023-03-25T07:33:25;1.38;;;0.70;;
27939;SDS011;15275;51.716;14.324;2023-03-25T07:35:51;3.78;;;0.98;;
27939;SDS011;15275;51.716;14.324;2023-03-25T07:38:16;1.23;;;0.70;;
27939;SDS011;15275;51.716;14.324;2023-03-25T07:40:42;1.58;;;0.70;;
27939;SDS011;15275;51.716;14.324;2023-03-25T07:43:08;2.55;;;0.90;;
27939;SDS011;15275;51.716;14.324;2023-03-25T07:45:34;2.78;;;0.73;;
27939;SDS011;15275;51.716;14.324;2023-03-25T07:48:00;0.85;;;0.60;;
27939;SDS011;15275;51.716;14.324;2023-03-25T07:50:27;2.38;;;0.70;;
27939;SDS011;15275;51.716;14.324;2023-03-25T07:52:53;2.47;;;0.70;;
27939;SDS011;15275;51.716;14.324;2023-03-25T07:55:19;1.23;;;0.52;;
27939;SDS011;15275;51.716;14.324;2023-03-25T07:57:45;1.90;;;1.00;;
27939;SDS011;15275;51.716;14.324;2023-03-25T08:00:11;1.65;;;0.80;;
27939;SDS011;15275;51.716;14.324;2023-03-25T08:02:38;4.20;;;0.90;;
27939;SDS011;15275;51.716;14.324;2023-03-25T08:05:05;1.58;;;0.90;;
27939;SDS011;15275;51.716;14.324;2023-03-25T08:07:31;0.80;;;0.68;;
27939;SDS011;15275;51.716;14.324;2023-03-25T08:09:58;1.02;;;0.55;;
27939;SDS011;15275;51.716;14.324;2023-03-25T08:12:23;2.15;;;0.85;;
27939;SDS011;15275;51.716;14.324;2023-03-25T08:14:49;2.22;;;0.70;;
27939;SDS011;15275;51.716;14.324;2023-03-25T08:17:15;1.30;;;0.68;;
27939;SDS011;15275;51.716;14.324;2023-03-25T08:19:41;3.15;;;0.77;;
27939;SDS011;15275;51.716;14.324;2023-03-25T08:22:08;2.42;;;1.23;;
27939;SDS011;15275;51.716;14.324;2023-03-25T08:24:34;2.25;;;1.40;;
27939;SDS011;15275;51.716;14.324;2023-03-25T08:27:00;1.48;;;0.90;;
27939;SDS011;15275;51.716;14.324;2023-03-25T08:29:26;2.83;;;0.88;;
27939;SDS011;15275;51.716;14.324;2023-03-25T08:31:53;1.95;;;0.70;;
27939;SDS011;15275;51.716;14.324;2023-03-25T08:34:20;1.48;;;0.70;;
27939;SDS011;15275;51.716;14.324;2023-03-25T08:36:47;1.17;;;0.60;;
27939;SDS011;15275;51.716;14.324;2023-03-25T08:39:13;2.72;;;0.55;;
27939;SDS011;15275;51.716;14.324;2023-03-25T08:41:41;2.58;;;0.70;;
27939;SDS011;15275;51.716;14.324;2023-03-25T08:44:09;2.20;;;0.93;;
27939;SDS011;15275;51.716;14.324;2023-03-25T08:46:35;1.85;;;0.50;;
27939;SDS011;15275;51.716;14.324;2023-03-25T08:49:02;2.10;;;0.73;;
27939;SDS011;15275;51.716;14.324;2023-03-25T08:51:29;0.55;;;0.40;;
27939;SDS011;15275;51.716;14.324;2023-03-25T08:53:55;4.05;;;0.70;;
27939;SDS011;15275;51.716;14.324;2023-03-25T08:56:21;1.25;;;0.70;;
27939;SDS011;15275;51.716;14.324;2023-03-25T08:58:47;1.10;;;0.70;;
27939;SDS011;15275;51.716;14.324;2023-03-25T09:01:13;2.72;;;0.77;;
27939;SDS011;15275;51.716;14.324;2023-03-25T09:03:39;3.10;;;0.68;;
27939;SDS011;15275;51.716;14.324;2023-03-25T09:06:06;2.35;;;0.95;;
27939;SDS011;15275;51.716;14.324;2023-03-25T09:08:33;2.38;;;0.50;;
27939;SDS011;15275;51.716;14.324;2023-03-25T09:11:01;1.48;;;0.77;;
27939;SDS011;15275;51.716;14.324;2023-03-25T09:13:27;0.52;;;0.50;;
27939;SDS011;15275;51.716;14.324;2023-03-25T09:15:53;2.97;;;0.60;;
27939;SDS011;15275;51.716;14.324;2023-03-25T09:18:19;2.25;;;0.65;;
27939;SDS011;15275;51.716;14.324;2023-03-25T09:20:45;3.08;;;0.70;;
27939;SDS011;15275;51.716;14.324;2023-03-25T09:23:12;2.58;;;0.85;;
27939;SDS011;15275;51.716;14.324;2023-03-25T09:25:40;0.93;;;0.50;;
27939;SDS011;15275;51.716;14.324;2023-03-25T09:28:06;2.50;;;1.17;;
27939;SDS011;15275;51.716;14.324;2023-03-25T09:30:32;2.28;;;0.60;;
27939;SDS011;15275;51.716;14.324;2023-03-25T09:32:59;1.05;;;0.50;;
27939;SDS011;15275;51.716;14.324;2023-03-25T09:35:25;1.95;;;0.82;;
27939;SDS011;15275;51.716;14.324;2023-03-25T09:37:51;1.33;;;0.70;;
27939;SDS011;15275;51.716;14.324;2023-03-25T09:40:17;2.28;;;0.65;;
27939;SDS011;15275;51.716;14.324;2023-03-25T09:45:45;1.75;;;0.60;;
27939;SDS011;15275;51.716;14.324;2023-03-25T09:50:59;1.00;;;0.60;;
27939;SDS011;15275;51.716;14.324;2023-03-25T09:53:31;1.42;;;1.05;;
27939;SDS011;15275;51.716;14.324;2023-03-25T09:56:03;0.95;;;0.47;;
27939;SDS011;15275;51.716;14.324;2023-03-25T09:58:40;0.53;;;0.40;;
27939;SDS011;15275;51.716;14.324;2023-03-25T10:01:16;0.63;;;0.30;;
27939;SDS011;15275;51.716;14.324;2023-03-25T10:15:24;0.30;;;0.30;;
27939;SDS011;15275;51.716;14.324;2023-03-25T10:18:03;2.53;;;0.40;;
27939;SDS011;15275;51.716;14.324;2023-03-25T10:26:17;1.02;;;0.60;;
27939;SDS011;15275;51.716;14.324;2023-03-25T10:29:11;1.25;;;0.50;;
27939;SDS011;15275;51.716;14.324;2023-03-25T10:32:01;2.25;;;0.50;;
27939;SDS011;15275;51.716;14.324;2023-03-25T10:34:39;0.40;;;0.40;;
27939;SDS011;15275;51.716;14.324;2023-03-25T10:37:15;1.23;;;0.52;;
27939;SDS011;15275;51.716;14.324;2023-03-25T10:40:28;0.50;;;0.50;;
27939;SDS011;15275;51.716;14.324;2023-03-25T10:43:01;0.85;;;0.55;;
27939;SDS011;15275;51.716;14.324;2023-03-25T10:45:48;6.25;;;1.38;;
27939;SDS011;15275;51.716;14.324;2023-03-25T10:48:26;0.40;;;0.40;;
27939;SDS011;15275;51.716;14.324;2023-03-25T10:53:34;1.65;;;0.47;;
27939;SDS011;15275;51.716;14.324;2023-03-25T10:56:06;1.30;;;0.57;;
27939;SDS011;15275;51.716;14.324;2023-03-25T10:58:38;1.02;;;0.50;;
27939;SDS011;15275;51.716;14.324;2023-03-25T11:01:10;2.05;;;0.60;;
27939;SDS011;15275;51.716;14.324;2023-03-25T11:03:41;0.80;;;0.50;;
27939;SDS011;15275;51.716;14.324;2023-03-25T11:06:22;1.67;;;0.50;;
27939;SDS011;15275;51.716;14.324;2023-03-25T11:11:33;0.68;;;0.43;;
27939;SDS011;15275;51.716;14.324;2023-03-25T11:14:00;0.90;;;0.60;;
27939;SDS011;15275;51.716;14.324;2023-03-25T11:16:44;1.33;;;0.52;;
27939;SDS011;15275;51.716;14.324;2023-03-25T11:19:30;2.50;;;0.60;;
27939;SDS011;15275;51.716;14.324;2023-03-25T11:22:08;0.90;;;0.43;;
27939;SDS011;15275;51.716;14.324;2023-03-25T11:24:56;0.98;;;0.40;;
27939;SDS011;15275;51.716;14.324;2023-03-25T11:27:27;0.30;;;0.28;;
27939;SDS011;15275;51.716;14.324;2023-03-25T11:30:04;1.00;;;0.47;;
27939;SDS011;15275;51.716;14.324;2023-03-25T11:32:40;0.40;;;0.30;;
27939;SDS011;15275;51.716;14.324;2023-03-25T11:35:13;0.60;;;0.50;;
27939;SDS011;15275;51.716;14.324;2023-03-25T11:37:47;0.68;;;0.50;;
27939;SDS011;15275;51.716;14.324;2023-03-25T11:40:23;1.77;;;0.38;;
27939;SDS011;15275;51.716;14.324;2023-03-25T11:42:52;0.17;;;0.17;;
27939;SDS011;15275;51.716;14.324;2023-03-25T11:45:22;3.15;;;0.50;;
27939;SDS011;15275;51.716;14.324;2023-03-25T11:47:58;0.50;;;0.22;;
27939;SDS011;15275;51.716;14.324;2023-03-25T11:50:35;0.60;;;0.30;;
27939;SDS011;15275;51.716;14.324;2023-03-25T11:53:02;1.20;;;0.30;;
27939;SDS011;15275;51.716;14.324;2023-03-25T11:55:31;0.47;;;0.30;;
27939;SDS011;15275;51.716;14.324;2023-03-25T11:58:12;1.00;;;0.50;;
27939;SDS011;15275;51.716;14.324;2023-03-25T12:00:45;2.08;;;0.50;;
27939;SDS011;15275;51.716;14.324;2023-03-25T12:05:39;1.13;;;0.60;;
27939;SDS011;15275;51.716;14.324;2023-03-25T12:08:13;0.60;;;0.32;;
27939;SDS011;15275;51.716;14.324;2023-03-25T12:11:00;0.30;;;0.30;;
27939;SDS011;15275;51.716;14.324;2023-03-25T12:16:27;1.33;;;0.40;;
27939;SDS011;15275;51.716;14.324;2023-03-25T12:19:27;0.80;;;0.30;;
27939;SDS011;15275;51.716;14.324;2023-03-25T12:39:09;1.85;;;0.35;;
27939;SDS011;15275;51.716;14.324;2023-03-25T13:07:15;0.82;;;0.43;;
27939;SDS011;15275;51.716;14.324;2023-03-25T13:15:24;0.32;;;0.30;;
27939;SDS011;15275;51.716;14.324;2023-03-25T13:18:02;0.60;;;0.50;;
27939;SDS011;15275;51.716;14.324;2023-03-25T13:20:38;0.85;;;0.55;;
27939;SDS011;15275;51.716;14.324;2023-03-25T13:23:14;0.90;;;0.50;;
27939;SDS011;15275;51.716;14.324;2023-03-25T13:28:24;1.67;;;0.70;;
27939;SDS011;15275;51.716;14.324;2023-03-25T13:31:02;1.77;;;0.40;;
27939;SDS011;15275;51.716;14.324;2023-03-25T13:33:37;2.40;;;0.65;;
27939;SDS011;15275;51.716;14.324;2023-03-25T13:36:16;1.50;;;1.08;;
27939;SDS011;15275;51.716;14.324;2023-03-25T13:39:05;0.95;;;0.60;;
27939;SDS011;15275;51.716;14.324;2023-03-25T13:42:25;2.50;;;0.43;;
27939;SDS011;15275;51.716;14.324;2023-03-25T13:47:40;0.88;;;0.60;;
27939;SDS011;15275;51.716;14.324;2023-03-25T13:50:14;1.30;;;0.43;;
27939;SDS011;15275;51.716;14.324;2023-03-25T13:53:03;1.85;;;0.57;;
27939;SDS011;15275;51.716;14.324;2023-03-25T14:12:32;1.02;;;0.50;;
27939;SDS011;15275;51.716;14.324;2023-03-25T14:15:12;1.20;;;0.60;;
27939;SDS011;15275;51.716;14.324;2023-03-25T14:17:43;1.45;;;0.40;;
27939;SDS011;15275;51.716;14.324;2023-03-25T14:20:11;0.82;;;0.43;;
27939;SDS011;15275;51.716;14.324;2023-03-25T14:23:07;2.20;;;1.13;;
27939;SDS011;15275;51.716;14.324;2023-03-25T14:25:43;1.08;;;0.50;;
27939;SDS011;15275;51.716;14.324;2023-03-25T14:28:28;1.10;;;0.60;;
27939;SDS011;15275;51.716;14.324;2023-03-25T14:31:05;0.93;;;0.40;;
27939;SDS011;15275;51.716;14.324;2023-03-25T14:36:29;1.40;;;0.60;;
27939;SDS011;15275;51.716;14.324;2023-03-25T14:39:12;0.65;;;0.50;;
27939;SDS011;15275;51.716;14.324;2023-03-25T14:42:07;1.10;;;0.40;;
27939;SDS011;15275;51.716;14.324;2023-03-25T14:44:40;0.40;;;0.40;;
27939;SDS011;15275;51.716;14.324;2023-03-25T14:55:16;0.30;;;0.30;;
27939;SDS011;15275;51.716;14.324;2023-03-25T14:57:58;1.20;;;0.47;;
27939;SDS011;15275;51.716;14.324;2023-03-25T15:00:30;1.45;;;0.40;;
27939;SDS011;15275;51.716;14.324;2023-03-25T15:03:03;1.02;;;0.50;;
27939;SDS011;15275;51.716;14.324;2023-03-25T15:05:34;2.30;;;0.52;;
27939;SDS011;15275;51.716;14.324;2023-03-25T15:10:32;0.47;;;0.40;;
27939;SDS011;15275;51.716;14.324;2023-03-25T15:13:04;0.40;;;0.30;;
27939;SDS011;15275;51.716;14.324;2023-03-25T15:18:11;0.68;;;0.35;;
27939;SDS011;15275;51.716;14.324;2023-03-25T15:21:17;0.68;;;0.50;;
27939;SDS011;15275;51.716;14.324;2023-03-25T15:23:59;0.73;;;0.52;;
27939;SDS011;15275;51.716;14.324;2023-03-25T15:31:40;0.25;;;0.22;;
27939;SDS011;15275;51.716;14.324;2023-03-25T15:37:11;0.75;;;0.47;;
27939;SDS011;15275;51.716;14.324;2023-03-25T15:45:42;0.30;;;0.30;;
27939;SDS011;15275;51.716;14.324;2023-03-25T15:51:49;1.80;;;0.38;;
27939;SDS011;15275;51.716;14.324;2023-03-25T15:54:49;3.47;;;0.30;;
27939;SDS011;15275;51.716;14.324;2023-03-25T16:00:02;1.00;;;0.50;;
27939;SDS011;15275;51.716;14.324;2023-03-25T16:02:44;0.70;;;0.70;;
27939;SDS011;15275;51.716;14.324;2023-03-25T16:05:32;0.52;;;0.50;;
27939;SDS011;15275;51.716;14.324;2023-03-25T16:08:08;0.73;;;0.50;;
27939;SDS011;15275;51.716;14.324;2023-03-25T16:10:41;1.75;;;0.57;;
27939;SDS011;15275;51.716;14.324;2023-03-25T16:13:11;1.40;;;0.50;;
27939;SDS011;15275;51.716;14.324;2023-03-25T16:15:48;0.88;;;0.52;;
27939;SDS011;15275;51.716;14.324;2023-03-25T16:18:19;0.50;;;0.50;;
27939;SDS011;15275;51.716;14.324;2023-03-25T16:20:47;0.57;;;0.50;;
27939;SDS011;15275;51.716;14.324;2023-03-25T16:23:23;0.40;;;0.40;;
27939;SDS011;15275;51.716;14.324;2023-03-25T16:25:51;0.57;;;0.50;;
27939;SDS011;15275;51.716;14.324;2023-03-25T16:28:22;0.73;;;0.55;;
27939;SDS011;15275;51.716;14.324;2023-03-25T16:31:08;2.25;;;0.50;;
27939;SDS011;15275;51.716;14.324;2023-03-25T16:33:57;1.92;;;0.60;;
27939;SDS011;15275;51.716;14.324;2023-03-25T16:36:24;2.75;;;0.50;;
27939;SDS011;15275;51.716;14.324;2023-03-25T16:38:51;0.50;;;0.47;;
27939;SDS011;15275;51.716;14.324;2023-03-25T16:41:17;1.30;;;0.45;;
27939;SDS011;15275;51.716;14.324;2023-03-25T16:43:43;0.77;;;0.45;;
27939;SDS011;15275;51.716;14.324;2023-03-25T16:46:10;0.65;;;0.50;;
27939;SDS011;15275;51.716;14.324;2023-03-25T16:48:39;3.33;;;1.05;;
27939;SDS011;15275;51.716;14.324;2023-03-25T16:51:20;2.55;;;1.00;;
27939;SDS011;15275;51.716;14.324;2023-03-25T16:54:00;1.20;;;0.65;;
27939;SDS011;15275;51.716;14.324;2023-03-25T16:59:10;5.85;;;1.38;;
27939;SDS011;15275;51.716;14.324;2023-03-25T17:02:00;5.72;;;2.20;;
27939;SDS011;15275;51.716;14.324;2023-03-25T17:04:37;6.03;;;1.80;;
27939;SDS011;15275;51.716;14.324;2023-03-25T17:07:10;3.33;;;1.27;;
27939;SDS011;15275;51.716;14.324;2023-03-25T17:09:50;1.45;;;0.73;;
27939;SDS011;15275;51.716;14.324;2023-03-25T17:12:21;3.35;;;1.30;;
27939;SDS011;15275;51.716;14.324;2023-03-25T17:14:49;4.85;;;2.08;;
27939;SDS011;15275;51.716;14.324;2023-03-25T17:19:52;3.60;;;1.52;;
27939;SDS011;15275;51.716;14.324;2023-03-25T17:22:26;3.58;;;1.40;;
27939;SDS011;15275;51.716;14.324;2023-03-25T17:25:00;2.22;;;1.05;;
27939;SDS011;15275;51.716;14.324;2023-03-25T17:27:46;2.00;;;1.27;;
27939;SDS011;15275;51.716;14.324;2023-03-25T17:33:13;1.95;;;1.08;;
27939;SDS011;15275;51.716;14.324;2023-03-25T17:36:08;1.73;;;1.00;;
27939;SDS011;15275;51.716;14.324;2023-03-25T17:38:40;3.97;;;0.93;;
27939;SDS011;15275;51.716;14.324;2023-03-25T17:41:12;1.50;;;0.95;;
27939;SDS011;15275;51.716;14.324;2023-03-25T17:43:46;1.48;;;0.90;;
27939;SDS011;15275;51.716;14.324;2023-03-25T17:46:25;1.35;;;0.75;;
27939;SDS011;15275;51.716;14.324;2023-03-25T17:48:54;1.83;;;0.80;;
27939;SDS011;15275;51.716;14.324;2023-03-25T17:51:22;1.17;;;0.60;;
27939;SDS011;15275;51.716;14.324;2023-03-25T17:53:50;0.82;;;0.73;;
27939;SDS011;15275;51.716;14.324;2023-03-25T17:56:18;1.33;;;0.80;;
27939;SDS011;15275;51.716;14.324;2023-03-25T17:58:54;0.95;;;0.82;;
27939;SDS011;15275;51.716;14.324;2023-03-25T18:01:31;1.20;;;0.80;;
27939;SDS011;15275;51.716;14.324;2023-03-25T18:03:59;2.35;;;1.02;;
27939;SDS011;15275;51.716;14.324;2023-03-25T18:06:25;2.28;;;1.02;;